createdAt,value
2023-05-02T00:00:17.844Z,59.26
2023-05-02T00:03:04.705Z,59.98
2023-05-02T00:05:51.672Z,59.40
2023-05-02T00:08:38.693Z,60.47
2023-05-02T00:11:25.627Z,60.34
2023-05-02T00:14:06.064Z,60.41
2023-05-02T00:16:52.819Z,61.09
2023-05-02T00:19:32.997Z,61.13
2023-05-02T00:22:19.611Z,60.80
2023-05-02T00:25:06.823Z,60.99
2023-05-02T00:27:46.805Z,62.03
2023-05-02T00:30:33.897Z,61.44
2023-05-02T00:33:13.687Z,62.45
2023-05-02T00:36:00.584Z,63.41
2023-05-02T00:38:40.810Z,63.91
2023-05-02T00:41:27.655Z,64.55
2023-05-02T00:44:08.527Z,64.77
2023-05-02T00:46:55.645Z,65.87
2023-05-02T00:49:42.583Z,66.23
2023-05-02T00:52:29.740Z,66.59
2023-05-02T00:55:10.528Z,65.38
2023-05-02T00:57:50.953Z,65.88
2023-05-02T01:00:44.610Z,65.99
2023-05-02T01:03:49.866Z,65.80
2023-05-02T01:07:00.579Z,65.56
2023-05-02T01:10:03.130Z,65.54
2023-05-02T01:13:00.597Z,65.11
2023-05-02T01:15:48.672Z,64.94
2023-05-02T01:18:31.673Z,65.11
2023-05-02T01:21:19.555Z,64.19
2023-05-02T01:24:04.755Z,64.54
2023-05-02T01:27:09.526Z,63.24
2023-05-02T01:29:58.880Z,62.90
2023-05-02T01:32:41.900Z,61.92
2023-05-02T01:35:30.491Z,60.96
2023-05-02T01:38:21.554Z,60.80
2023-05-02T01:41:13.551Z,60.44
2023-05-02T01:44:02.672Z,60.60
2023-05-02T01:46:53.603Z,60.23
2023-05-02T01:49:35.554Z,60.39
2023-05-02T01:52:27.482Z,60.63
2023-05-02T01:55:11.011Z,60.91
2023-05-02T01:58:01.546Z,62.11
2023-05-02T02:00:51.507Z,62.55
2023-05-02T02:03:32.673Z,63.42
2023-05-02T02:06:21.567Z,64.63
2023-05-02T02:09:01.609Z,65.09
2023-05-02T02:11:58.504Z,65.32
2023-05-02T02:14:52.830Z,65.16
2023-05-02T02:17:46.511Z,65.14
2023-05-02T02:20:35.434Z,64.83
2023-05-02T02:23:18.446Z,64.17
2023-05-02T02:26:07.473Z,64.60
2023-05-02T02:28:49.069Z,64.01
2023-05-02T02:31:35.533Z,63.09
2023-05-02T02:34:22.465Z,63.20
2023-05-02T02:37:22.471Z,62.73
2023-05-02T02:40:33.492Z,63.17
2023-05-02T02:43:31.404Z,63.75
2023-05-02T02:46:29.652Z,63.60
2023-05-02T02:49:46.458Z,64.25
2023-05-02T02:52:52.439Z,64.48
2023-05-02T02:55:35.761Z,63.91
2023-05-02T02:58:28.440Z,64.01
2023-05-02T03:01:15.057Z,63.83
2023-05-02T03:04:03.453Z,63.63
2023-05-02T03:06:50.510Z,63.53
2023-05-02T03:09:33.699Z,63.24
2023-05-02T03:12:21.460Z,63.24
2023-05-02T03:15:26.497Z,63.84
2023-05-02T03:18:13.449Z,64.89
2023-05-02T03:21:00.387Z,65.54
2023-05-02T03:23:47.379Z,66.13
2023-05-02T03:26:34.407Z,65.89
2023-05-02T03:29:16.778Z,65.33
2023-05-02T03:32:03.428Z,66.43
2023-05-02T03:34:51.393Z,66.67
2023-05-02T03:37:36.499Z,65.73
2023-05-02T03:40:23.436Z,65.75
2023-05-02T03:43:11.345Z,65.37
2023-05-02T03:45:51.917Z,65.54
2023-05-02T03:48:38.329Z,66.27
2023-05-02T03:51:18.698Z,66.41
2023-05-02T03:54:09.297Z,66.17
2023-05-02T03:56:56.379Z,65.64
2023-05-02T03:59:49.382Z,63.48
2023-05-02T04:02:33.695Z,60.46
2023-05-02T04:05:24.310Z,61.42
2023-05-02T04:08:04.880Z,59.48
2023-05-02T04:10:51.335Z,56.41
2023-05-02T04:13:38.282Z,54.83
2023-05-02T04:16:25.397Z,54.19
2023-05-02T04:19:12.325Z,51.13
2023-05-02T04:21:59.303Z,51.69
2023-05-02T04:24:50.316Z,49.87
2023-05-02T04:27:39.290Z,49.70
2023-05-02T04:30:29.268Z,50.21
2023-05-02T04:33:14.454Z,49.92
2023-05-02T04:36:01.348Z,47.69
2023-05-02T04:38:41.476Z,46.35
2023-05-02T04:41:30.275Z,45.19
2023-05-02T04:44:13.396Z,42.84
2023-05-02T04:47:00.309Z,41.62
2023-05-02T04:49:47.311Z,40.30
2023-05-02T04:52:27.767Z,39.52
2023-05-02T04:55:14.308Z,42.56
2023-05-02T04:57:54.645Z,43.74
2023-05-02T05:00:42.290Z,42.22
2023-05-02T05:03:22.909Z,42.26
2023-05-02T05:06:11.292Z,41.21
2023-05-02T05:08:58.235Z,39.61
2023-05-02T05:11:42.864Z,42.77
2023-05-02T05:14:31.216Z,42.26
2023-05-02T05:17:11.405Z,40.60
2023-05-02T05:19:58.433Z,40.08
2023-05-02T05:22:38.560Z,38.62
2023-05-02T05:25:26.227Z,36.16
2023-05-02T05:28:08.342Z,34.67
2023-05-02T05:30:55.248Z,35.06
2023-05-02T05:33:35.402Z,34.17
2023-05-02T05:36:24.270Z,33.92
2023-05-02T05:39:04.433Z,36.42
2023-05-02T05:41:53.215Z,37.06
2023-05-02T05:44:41.249Z,35.90
2023-05-02T05:47:22.770Z,35.19
2023-05-02T05:50:03.512Z,34.29
2023-05-02T05:52:44.436Z,30.81
2023-05-02T05:55:31.248Z,32.81
2023-05-02T05:58:12.287Z,35.63
2023-05-02T06:00:59.184Z,32.31
2023-05-02T06:03:46.247Z,32.12
2023-05-02T06:06:27.634Z,33.69
2023-05-02T06:09:14.191Z,32.83
2023-05-02T06:12:01.173Z,31.23
2023-05-02T06:14:42.356Z,30.06
2023-05-02T06:17:29.233Z,29.49
2023-05-02T06:20:09.490Z,30.17
2023-05-02T06:22:56.217Z,29.99
2023-05-02T06:25:36.230Z,30.53
2023-05-02T06:28:23.150Z,28.89
2023-05-02T06:31:11.340Z,29.67
2023-05-02T06:33:59.211Z,32.85
2023-05-02T06:36:39.353Z,32.76
2023-05-02T06:39:26.208Z,32.08
2023-05-02T06:42:20.154Z,31.70
2023-05-02T06:45:00.736Z,31.69
2023-05-02T06:47:47.598Z,31.26
2023-05-02T06:50:29.706Z,30.29
2023-05-02T06:53:18.105Z,31.17
2023-05-02T06:55:58.734Z,32.51
2023-05-02T06:58:45.151Z,31.46
2023-05-02T07:01:25.683Z,29.91
2023-05-02T07:04:12.165Z,30.41
2023-05-02T07:06:52.698Z,30.75
2023-05-02T07:09:33.126Z,31.46
2023-05-02T07:12:20.140Z,31.37
2023-05-02T07:15:00.619Z,29.39
2023-05-02T07:17:47.105Z,29.13
2023-05-02T07:20:34.094Z,30.44
2023-05-02T07:23:14.287Z,29.06
2023-05-02T07:40:10.937Z,22.76
2023-05-02T07:42:57.960Z,24.22
2023-05-02T07:45:44.966Z,21.19
2023-05-02T07:48:27.619Z,19.56
2023-05-02T07:51:22.953Z,24.01
2023-05-02T07:54:03.269Z,22.20
2023-05-02T07:56:50.001Z,22.60
2023-05-02T07:59:31.290Z,22.39
2023-05-02T08:02:20.115Z,20.82
2023-05-02T08:05:00.459Z,20.12
2023-05-02T08:07:46.919Z,20.22
2023-05-02T08:10:27.931Z,19.83
2023-05-02T08:13:14.929Z,19.75
2023-05-02T08:15:58.595Z,20.83
2023-05-02T08:18:45.875Z,19.45
2023-05-02T08:21:27.714Z,19.69
2023-05-02T08:24:14.952Z,19.73
2023-05-02T08:26:55.305Z,20.12
2023-05-02T08:29:41.948Z,19.31
2023-05-02T08:32:22.878Z,18.55
2023-05-02T08:35:09.964Z,18.32
2023-05-02T08:37:56.932Z,18.67
2023-05-02T08:40:43.423Z,18.29
2023-05-02T08:43:29.957Z,18.74
2023-05-02T08:46:18.982Z,19.08
2023-05-02T08:49:00.196Z,19.43
2023-05-02T08:51:48.909Z,19.40
2023-05-02T08:54:29.510Z,20.81
2023-05-02T08:57:17.871Z,20.39
2023-05-02T09:00:05.908Z,21.06
2023-05-02T09:03:09.076Z,20.60
2023-05-02T09:06:03.884Z,20.20
2023-05-02T09:08:50.917Z,19.08
2023-05-02T09:11:31.502Z,19.45
2023-05-02T09:14:27.858Z,19.68
2023-05-02T09:17:08.265Z,22.17
2023-05-02T09:19:54.901Z,20.70
2023-05-02T09:22:35.473Z,21.65
2023-05-02T09:25:21.848Z,20.37
2023-05-02T09:28:02.524Z,20.67
2023-05-02T09:30:48.931Z,22.90
2023-05-02T09:33:29.240Z,20.10
2023-05-02T09:36:15.873Z,21.46
2023-05-02T09:39:25.817Z,21.82
2023-05-02T09:42:06.413Z,21.03
2023-05-02T09:44:53.823Z,19.50
2023-05-02T09:47:34.413Z,18.26
2023-05-02T09:50:20.876Z,18.03
2023-05-02T09:53:11.819Z,19.06
2023-05-02T09:55:58.842Z,21.23
2023-05-02T09:58:45.857Z,21.64
2023-05-02T10:01:26.117Z,23.30
2023-05-02T10:04:14.245Z,23.35
2023-05-02T10:06:56.240Z,23.39
2023-05-02T10:09:43.813Z,22.43
2023-05-02T10:12:36.876Z,26.46
2023-05-02T10:15:21.102Z,23.30
2023-05-02T10:18:11.866Z,27.25
2023-05-02T10:21:18.779Z,25.35
2023-05-02T10:24:05.786Z,27.67
2023-05-02T10:26:53.802Z,26.02
2023-05-02T10:29:36.158Z,27.00
2023-05-02T10:32:24.826Z,26.77
2023-05-02T10:35:09.886Z,25.00
2023-05-02T10:37:57.828Z,28.65
2023-05-02T10:40:44.827Z,24.08
2023-05-02T10:43:28.844Z,25.04
2023-05-02T10:46:15.794Z,24.83
2023-05-02T10:49:13.764Z,24.87
2023-05-02T10:51:54.094Z,22.12
2023-05-02T10:54:41.746Z,24.62
2023-05-02T10:57:22.009Z,24.58
2023-05-02T11:00:28.745Z,23.72
2023-05-02T11:03:15.833Z,21.93
2023-05-02T11:06:09.874Z,23.93
2023-05-02T11:08:56.749Z,23.62
2023-05-02T11:11:52.831Z,24.31
2023-05-02T11:14:32.723Z,26.91
2023-05-02T11:17:20.801Z,24.83
2023-05-02T11:20:10.769Z,27.20
2023-05-02T11:22:51.892Z,22.61
2023-05-02T11:25:50.762Z,21.98
2023-05-02T11:28:43.745Z,23.12
2023-05-02T11:31:35.909Z,26.50
2023-05-02T11:34:22.727Z,29.88
2023-05-02T11:37:02.884Z,32.21
2023-05-02T11:39:49.697Z,36.50
2023-05-02T11:42:47.672Z,38.09
2023-05-02T11:45:42.805Z,37.93
2023-05-02T11:48:33.721Z,38.52
2023-05-02T11:51:14.145Z,42.66
2023-05-02T11:54:00.718Z,40.30
2023-05-02T11:56:41.381Z,41.29
2023-05-02T11:59:27.706Z,42.18
2023-05-02T12:02:14.814Z,43.34
2023-05-02T12:04:54.705Z,40.74
2023-05-02T12:07:44.977Z,42.98
2023-05-02T12:10:31.749Z,41.43
2023-05-02T12:13:12.193Z,38.88
2023-05-02T12:15:58.777Z,36.11
2023-05-02T12:18:39.303Z,40.71
2023-05-02T12:21:25.621Z,40.61
2023-05-02T12:24:12.710Z,38.04
2023-05-02T12:26:53.028Z,38.53
2023-05-02T12:30:05.831Z,38.64
2023-05-02T12:32:46.014Z,36.79
2023-05-02T12:35:32.673Z,37.20
2023-05-02T12:38:37.663Z,38.08
2023-05-02T12:41:18.003Z,39.46
2023-05-02T12:44:05.659Z,37.73
2023-05-02T12:47:07.763Z,37.37
2023-05-02T12:50:08.707Z,37.11
2023-05-02T12:52:57.685Z,36.72
2023-05-02T12:55:44.633Z,35.89
2023-05-02T12:58:26.713Z,36.76
2023-05-02T13:01:13.790Z,35.95
2023-05-02T13:04:00.805Z,33.80
2023-05-02T13:06:40.951Z,33.65
2023-05-02T13:09:27.599Z,35.51
2023-05-02T13:12:08.056Z,36.70
2023-05-02T13:14:54.688Z,36.67
2023-05-02T13:17:34.977Z,36.47
2023-05-02T13:20:21.617Z,36.08
2023-05-02T13:23:01.729Z,35.53
2023-05-02T13:25:48.635Z,35.38
2023-05-02T13:28:33.809Z,35.81
2023-05-02T13:31:20.644Z,35.23
2023-05-02T13:34:07.627Z,37.54
2023-05-02T13:36:48.073Z,35.86
2023-05-02T13:39:34.622Z,37.37
2023-05-02T13:42:15.009Z,37.70
2023-05-02T13:45:01.561Z,38.33
2023-05-02T13:47:48.808Z,38.71
2023-05-02T13:50:28.575Z,39.14
2023-05-02T13:53:08.963Z,39.81
2023-05-02T13:55:55.608Z,40.11
2023-05-02T13:58:36.106Z,38.43
2023-05-02T14:01:22.689Z,38.31
2023-05-02T14:04:08.622Z,39.22
2023-05-02T14:06:55.620Z,39.01
2023-05-02T14:09:42.534Z,37.89
2023-05-02T14:12:22.690Z,39.82
2023-05-02T14:15:09.585Z,39.57
2023-05-02T14:17:49.647Z,40.14
2023-05-02T14:20:36.511Z,39.23
2023-05-02T14:23:16.715Z,39.01
2023-05-02T14:26:03.551Z,37.81
2023-05-02T14:28:43.621Z,38.65
2023-05-02T14:31:30.640Z,38.80
2023-05-02T14:34:10.791Z,39.82
2023-05-02T14:36:57.545Z,40.31
2023-05-02T14:39:54.953Z,40.65
2023-05-02T14:42:34.882Z,41.88
2023-05-02T14:45:22.561Z,41.42
2023-05-02T14:48:09.647Z,39.56
2023-05-02T14:50:50.762Z,39.11
2023-05-02T14:53:37.532Z,38.90
2023-05-02T14:56:21.177Z,40.06
2023-05-02T14:59:08.524Z,40.83
2023-05-02T15:01:48.782Z,41.26
2023-05-02T15:04:36.557Z,43.01
2023-05-02T15:07:23.707Z,41.65
2023-05-02T15:10:04.360Z,38.98
2023-05-02T15:12:52.524Z,43.03
2023-05-02T15:15:39.490Z,43.81
2023-05-02T15:18:26.577Z,44.24
2023-05-02T15:21:06.993Z,42.11
2023-05-02T15:23:53.499Z,42.10
2023-05-02T15:26:33.960Z,45.99
2023-05-02T15:29:20.499Z,48.35
2023-05-02T15:32:07.697Z,50.11
2023-05-02T15:34:47.490Z,50.09
2023-05-02T15:37:41.458Z,52.23
2023-05-02T15:40:28.480Z,52.14
2023-05-02T15:43:15.443Z,52.88
2023-05-02T15:45:58.436Z,53.14
2023-05-02T15:48:46.491Z,52.97
2023-05-02T15:51:27.115Z,54.49
2023-05-02T15:54:14.463Z,54.32
2023-05-02T15:56:55.248Z,54.66
2023-05-02T15:59:42.491Z,53.72
2023-05-02T16:02:22.907Z,52.79
2023-05-02T16:05:09.445Z,50.30
2023-05-02T16:07:56.380Z,48.61
2023-05-02T16:10:39.250Z,45.89
2023-05-02T16:13:26.459Z,44.74
2023-05-02T16:16:14.434Z,45.92
2023-05-02T16:19:01.448Z,47.62
2023-05-02T16:21:42.134Z,49.73
2023-05-02T16:24:29.402Z,49.94
2023-05-02T16:27:16.386Z,51.14
2023-05-02T16:29:57.403Z,52.95
2023-05-02T16:32:44.448Z,54.22
2023-05-02T16:35:24.797Z,55.87
2023-05-02T16:38:11.417Z,56.82
2023-05-02T16:40:58.545Z,58.80
2023-05-02T16:43:38.427Z,58.69
2023-05-02T16:46:18.875Z,60.42
2023-05-02T16:49:05.371Z,60.68
2023-05-02T16:51:48.961Z,61.92
2023-05-02T16:54:35.400Z,64.28
2023-05-02T16:57:21.060Z,64.60
2023-05-02T17:00:07.383Z,65.18
2023-05-02T17:02:47.986Z,66.61
2023-05-02T17:05:34.365Z,66.39
2023-05-02T17:08:16.889Z,67.08
2023-05-02T17:11:03.344Z,68.00
2023-05-02T17:13:50.333Z,68.66
2023-05-02T17:16:30.529Z,68.03
2023-05-02T17:19:17.328Z,68.39
2023-05-02T17:21:58.535Z,68.25
2023-05-02T17:24:45.327Z,68.94
2023-05-02T17:27:25.470Z,69.08
2023-05-02T17:30:13.330Z,68.63
2023-05-02T17:33:00.450Z,68.90
2023-05-02T17:35:47.311Z,68.43
2023-05-02T17:38:27.540Z,68.46
2023-05-02T17:41:14.321Z,68.42
2023-05-02T17:43:54.401Z,68.49
2023-05-02T17:46:41.340Z,68.95
2023-05-02T17:49:21.961Z,70.14
2023-05-02T17:52:08.282Z,71.40
2023-05-02T17:54:55.313Z,72.11
2023-05-02T17:57:35.779Z,73.51
2023-05-02T18:00:23.282Z,73.48
2023-05-02T18:03:03.912Z,75.17
2023-05-02T18:05:54.274Z,76.62
2023-05-02T18:08:34.830Z,77.94
2023-05-02T18:11:29.255Z,78.97
2023-05-02T18:14:09.587Z,80.74
2023-05-02T18:16:56.244Z,82.56
2023-05-02T18:19:43.309Z,85.00
2023-05-02T18:22:23.471Z,86.11
2023-05-02T18:25:11.311Z,86.93
2023-05-02T18:27:51.413Z,87.48
2023-05-02T18:30:38.311Z,87.66
2023-05-02T18:33:18.432Z,87.98
2023-05-02T18:36:05.229Z,88.31
2023-05-02T18:38:45.382Z,88.52
2023-05-02T18:41:32.245Z,89.20
2023-05-02T18:44:13.437Z,89.54
2023-05-02T18:47:00.258Z,90.60
2023-05-02T18:49:48.234Z,91.96
2023-05-02T18:52:30.491Z,94.63
2023-05-02T18:55:18.226Z,97.86
2023-05-02T18:57:58.719Z,99.15
2023-05-02T19:00:45.241Z,99.92
2023-05-02T19:03:26.895Z,100.00
2023-05-02T19:06:14.258Z,100.00
2023-05-02T19:08:54.583Z,100.00
2023-05-02T19:11:41.262Z,100.00
2023-05-02T19:14:21.565Z,100.00
2023-05-02T19:17:08.202Z,100.00
2023-05-02T19:19:50.993Z,100.00
2023-05-02T19:22:41.204Z,100.00
2023-05-02T19:25:35.204Z,100.00
2023-05-02T19:28:25.134Z,100.00
2023-05-02T19:41:56.684Z,100.00
2023-05-02T19:44:37.063Z,100.00
2023-05-02T19:47:23.730Z,100.00
2023-05-02T19:50:10.710Z,100.00
2023-05-02T19:52:57.678Z,100.00
2023-05-02T19:55:44.765Z,100.00
2023-05-02T19:58:24.795Z,100.00
2023-05-02T20:01:11.711Z,100.00
2023-05-02T20:03:58.748Z,100.00
2023-05-02T20:06:39.100Z,100.00
2023-05-02T20:09:25.688Z,100.00
2023-05-02T20:12:06.216Z,100.00
2023-05-02T20:14:52.598Z,100.00
2023-05-02T20:17:39.681Z,100.00
2023-05-02T20:20:26.687Z,100.00
2023-05-02T20:23:07.074Z,100.00
2023-05-02T20:25:53.652Z,100.00
2023-05-02T20:28:34.014Z,100.00
2023-05-02T20:31:20.652Z,100.00
2023-05-02T20:34:01.151Z,100.00
2023-05-02T20:36:47.623Z,100.00
2023-05-02T20:39:41.566Z,100.00
2023-05-02T20:42:32.677Z,100.00
2023-05-02T20:45:14.093Z,100.00
2023-05-02T20:48:00.722Z,100.00
2023-05-02T20:50:47.619Z,100.00
2023-05-02T20:53:34.631Z,100.00
2023-05-02T20:56:21.601Z,100.00
2023-05-02T20:59:01.950Z,100.00
2023-05-02T21:01:48.596Z,100.00
2023-05-02T21:04:29.050Z,100.00
2023-05-02T21:07:16.609Z,100.00
2023-05-02T21:09:57.062Z,100.00
2023-05-02T21:12:43.551Z,100.00
2023-05-02T21:15:30.613Z,100.00
2023-05-02T21:18:18.596Z,100.00
2023-05-02T21:21:05.562Z,100.00
2023-05-02T21:23:52.535Z,100.00
2023-05-02T21:26:32.927Z,100.00
2023-05-02T21:29:20.597Z,100.00
2023-05-02T21:32:01.095Z,100.00
2023-05-02T21:34:47.609Z,100.00
2023-05-02T21:37:27.934Z,100.00
2023-05-02T21:40:14.499Z,100.00
2023-05-02T21:42:54.987Z,100.00
2023-05-02T21:45:41.523Z,100.00
2023-05-02T21:48:21.914Z,100.00
2023-05-02T21:51:08.579Z,100.00
2023-05-02T21:53:49.301Z,100.00
2023-05-02T21:56:36.731Z,100.00
2023-05-02T21:59:16.932Z,100.00
2023-05-02T22:02:03.563Z,100.00
2023-05-02T22:04:47.535Z,100.00
2023-05-02T22:07:34.540Z,100.00
2023-05-02T22:10:15.360Z,100.00
2023-05-02T22:13:02.532Z,100.00
2023-05-02T22:15:50.953Z,100.00
2023-05-02T22:18:30.519Z,100.00
2023-05-02T22:21:20.470Z,100.00
2023-05-02T22:24:00.852Z,100.00
2023-05-02T22:26:47.534Z,100.00
2023-05-02T22:29:27.617Z,100.00
2023-05-02T22:32:14.554Z,100.00
2023-05-02T22:34:54.539Z,100.00
2023-05-02T22:37:41.445Z,100.00
2023-05-02T22:40:28.450Z,100.00
2023-05-02T22:43:15.492Z,100.00
2023-05-02T22:46:02.509Z,100.00
2023-05-02T22:48:42.910Z,100.00
2023-05-02T22:51:29.445Z,100.00
2023-05-02T22:54:10.330Z,100.00
2023-05-02T22:56:57.455Z,100.00
2023-05-02T22:59:44.505Z,100.00
2023-05-02T23:02:24.540Z,100.00
2023-05-02T23:05:13.426Z,100.00
2023-05-02T23:07:53.502Z,100.00
2023-05-02T23:10:40.438Z,100.00
2023-05-02T23:13:20.820Z,100.00
2023-05-02T23:16:08.450Z,100.00
2023-05-02T23:18:55.429Z,100.00
2023-05-02T23:21:42.402Z,100.00
2023-05-02T23:24:29.374Z,100.00
2023-05-02T23:27:09.866Z,100.00
2023-05-02T23:29:56.405Z,100.00
2023-05-02T23:32:43.467Z,100.00
2023-05-02T23:35:23.488Z,100.00
2023-05-02T23:38:14.401Z,100.00
2023-05-02T23:41:01.448Z,100.00
2023-05-02T23:43:41.406Z,100.00
2023-05-02T23:46:28.382Z,100.00
2023-05-02T23:49:15.441Z,100.00
2023-05-02T23:52:02.354Z,100.00
2023-05-02T23:54:42.497Z,100.00
2023-05-02T23:57:29.412Z,100.00
